sensor_id;sensor_type;location;lat;lon;timestamp;temperature;humidity
24152;DHT22;12311;50.866;4.332;2022-08-02T00:00:12;21.00;99.90
24152;DHT22;12311;50.866;4.332;2022-08-02T00:02:39;21.10;99.90
24152;DHT22;12311;50.866;4.332;2022-08-02T00:05:05;21.10;99.90
24152;DHT22;12311;50.866;4.332;2022-08-02T00:07:31;21.10;99.90
24152;DHT22;12311;50.866;4.332;2022-08-02T00:09:57;21.00;99.90
24152;DHT22;12311;50.866;4.332;2022-08-02T00:12:23;20.90;99.90
24152;DHT22;12311;50.866;4.332;2022-08-02T00:14:49;20.90;99.90
24152;DHT22;12311;50.866;4.332;2022-08-02T00:17:14;20.90;99.90
24152;DHT22;12311;50.866;4.332;2022-08-02T00:19:40;20.80;99.90
24152;DHT22;12311;50.866;4.332;2022-08-02T00:22:06;20.80;99.90
24152;DHT22;12311;50.866;4.332;2022-08-02T00:24:31;20.70;99.90
24152;DHT22;12311;50.866;4.332;2022-08-02T00:26:58;20.80;99.90
24152;DHT22;12311;50.866;4.332;2022-08-02T00:29:24;20.70;99.90
24152;DHT22;12311;50.866;4.332;2022-08-02T00:31:49;20.70;99.90
24152;DHT22;12311;50.866;4.332;2022-08-02T00:34:15;20.70;99.90
24152;DHT22;12311;50.866;4.332;2022-08-02T00:36:40;20.70;99.90
24152;DHT22;12311;50.866;4.332;2022-08-02T00:39:06;20.80;99.90
24152;DHT22;12311;50.866;4.332;2022-08-02T00:41:32;20.70;99.90
24152;DHT22;12311;50.866;4.332;2022-08-02T00:43:57;20.70;99.90
24152;DHT22;12311;50.866;4.332;2022-08-02T00:46:23;20.60;99.90
24152;DHT22;12311;50.866;4.332;2022-08-02T00:48:49;20.60;99.90
24152;DHT22;12311;50.866;4.332;2022-08-02T00:51:15;20.60;99.90
24152;DHT22;12311;50.866;4.332;2022-08-02T00:53:41;20.70;99.90
24152;DHT22;12311;50.866;4.332;2022-08-02T00:56:07;20.70;99.90
24152;DHT22;12311;50.866;4.332;2022-08-02T00:58:33;20.60;99.90
24152;DHT22;12311;50.866;4.332;2022-08-02T01:00:59;20.60;99.90
24152;DHT22;12311;50.866;4.332;2022-08-02T01:03:26;20.70;99.90
24152;DHT22;12311;50.866;4.332;2022-08-02T01:05:52;20.70;99.90
24152;DHT22;12311;50.866;4.332;2022-08-02T01:08:17;20.70;99.90
24152;DHT22;12311;50.866;4.332;2022-08-02T01:10:43;20.70;99.90
24152;DHT22;12311;50.866;4.332;2022-08-02T01:13:09;20.80;99.90
24152;DHT22;12311;50.866;4.332;2022-08-02T01:15:39;20.70;99.90
24152;DHT22;12311;50.866;4.332;2022-08-02T01:29:55;20.80;99.90
24152;DHT22;12311;50.866;4.332;2022-08-02T01:32:28;20.70;99.90
24152;DHT22;12311;50.866;4.332;2022-08-02T01:37:42;20.70;99.90
24152;DHT22;12311;50.866;4.332;2022-08-02T01:40:21;20.70;99.90
24152;DHT22;12311;50.866;4.332;2022-08-02T01:42:51;20.70;99.90
24152;DHT22;12311;50.866;4.332;2022-08-02T01:45:18;20.70;99.90
24152;DHT22;12311;50.866;4.332;2022-08-02T01:47:45;20.70;99.90
24152;DHT22;12311;50.866;4.332;2022-08-02T01:50:15;20.60;99.90
24152;DHT22;12311;50.866;4.332;2022-08-02T01:52:52;20.60;99.90
24152;DHT22;12311;50.866;4.332;2022-08-02T01:55:22;20.60;99.90
24152;DHT22;12311;50.866;4.332;2022-08-02T01:57:52;20.60;99.90
24152;DHT22;12311;50.866;4.332;2022-08-02T02:00:24;20.70;99.90
24152;DHT22;12311;50.866;4.332;2022-08-02T02:02:54;20.80;99.90
24152;DHT22;12311;50.866;4.332;2022-08-02T02:05:22;20.80;99.90
24152;DHT22;12311;50.866;4.332;2022-08-02T02:07:51;20.80;99.90
24152;DHT22;12311;50.866;4.332;2022-08-02T02:10:25;20.80;99.90
24152;DHT22;12311;50.866;4.332;2022-08-02T02:12:51;20.70;99.90
24152;DHT22;12311;50.866;4.332;2022-08-02T02:15:17;20.70;99.90
24152;DHT22;12311;50.866;4.332;2022-08-02T02:17:46;20.50;99.90
24152;DHT22;12311;50.866;4.332;2022-08-02T02:20:14;20.30;99.90
24152;DHT22;12311;50.866;4.332;2022-08-02T02:22:41;20.30;99.90
24152;DHT22;12311;50.866;4.332;2022-08-02T02:25:08;20.20;99.90
24152;DHT22;12311;50.866;4.332;2022-08-02T02:27:35;20.00;99.90
24152;DHT22;12311;50.866;4.332;2022-08-02T02:30:03;20.00;99.90
24152;DHT22;12311;50.866;4.332;2022-08-02T02:32:30;20.00;99.90
24152;DHT22;12311;50.866;4.332;2022-08-02T02:34:58;19.90;99.90
24152;DHT22;12311;50.866;4.332;2022-08-02T02:37:25;20.00;99.90
24152;DHT22;12311;50.866;4.332;2022-08-02T02:39:53;20.00;99.90
24152;DHT22;12311;50.866;4.332;2022-08-02T02:42:22;19.90;99.90
24152;DHT22;12311;50.866;4.332;2022-08-02T02:44:49;19.90;99.90
24152;DHT22;12311;50.866;4.332;2022-08-02T02:47:16;19.90;99.90
24152;DHT22;12311;50.866;4.332;2022-08-02T02:49:45;19.80;99.90
24152;DHT22;12311;50.866;4.332;2022-08-02T02:52:14;19.80;99.90
24152;DHT22;12311;50.866;4.332;2022-08-02T02:54:41;19.80;99.90
24152;DHT22;12311;50.866;4.332;2022-08-02T02:57:09;19.70;99.90
24152;DHT22;12311;50.866;4.332;2022-08-02T02:59:36;19.80;99.90
24152;DHT22;12311;50.866;4.332;2022-08-02T03:02:03;19.80;99.90
24152;DHT22;12311;50.866;4.332;2022-08-02T03:04:30;19.70;99.90
24152;DHT22;12311;50.866;4.332;2022-08-02T03:06:56;19.70;99.90
24152;DHT22;12311;50.866;4.332;2022-08-02T03:09:21;19.70;99.90
24152;DHT22;12311;50.866;4.332;2022-08-02T03:11:47;19.70;99.90
24152;DHT22;12311;50.866;4.332;2022-08-02T03:14:14;19.50;99.90
24152;DHT22;12311;50.866;4.332;2022-08-02T03:16:45;19.60;99.90
24152;DHT22;12311;50.866;4.332;2022-08-02T03:19:11;19.50;99.90
24152;DHT22;12311;50.866;4.332;2022-08-02T03:21:37;19.50;99.90
24152;DHT22;12311;50.866;4.332;2022-08-02T03:24:03;19.50;99.90
24152;DHT22;12311;50.866;4.332;2022-08-02T03:26:29;19.50;99.90
24152;DHT22;12311;50.866;4.332;2022-08-02T03:28:54;19.50;99.90
24152;DHT22;12311;50.866;4.332;2022-08-02T03:31:20;19.40;99.90
24152;DHT22;12311;50.866;4.332;2022-08-02T03:33:46;19.50;99.90
24152;DHT22;12311;50.866;4.332;2022-08-02T03:36:14;19.50;99.90
24152;DHT22;12311;50.866;4.332;2022-08-02T03:38:41;19.40;99.90
24152;DHT22;12311;50.866;4.332;2022-08-02T03:41:10;19.50;99.90
24152;DHT22;12311;50.866;4.332;2022-08-02T03:43:37;19.50;99.90
24152;DHT22;12311;50.866;4.332;2022-08-02T03:46:06;19.50;99.90
24152;DHT22;12311;50.866;4.332;2022-08-02T03:48:32;19.30;99.90
24152;DHT22;12311;50.866;4.332;2022-08-02T03:50:59;19.40;99.90
24152;DHT22;12311;50.866;4.332;2022-08-02T03:53:26;19.30;99.90
24152;DHT22;12311;50.866;4.332;2022-08-02T03:55:52;19.20;99.90
24152;DHT22;12311;50.866;4.332;2022-08-02T03:58:19;19.20;99.90
24152;DHT22;12311;50.866;4.332;2022-08-02T04:00:46;19.20;99.90
24152;DHT22;12311;50.866;4.332;2022-08-02T04:03:12;19.20;99.90
24152;DHT22;12311;50.866;4.332;2022-08-02T04:05:38;19.20;99.90
24152;DHT22;12311;50.866;4.332;2022-08-02T04:08:04;19.20;99.90
24152;DHT22;12311;50.866;4.332;2022-08-02T04:10:29;19.20;99.90
24152;DHT22;12311;50.866;4.332;2022-08-02T04:12:55;19.00;99.90
24152;DHT22;12311;50.866;4.332;2022-08-02T04:15:23;19.00;99.90
24152;DHT22;12311;50.866;4.332;2022-08-02T04:17:53;19.00;99.90
24152;DHT22;12311;50.866;4.332;2022-08-02T04:20:26;18.90;99.90
24152;DHT22;12311;50.866;4.332;2022-08-02T04:23:05;18.90;99.90
24152;DHT22;12311;50.866;4.332;2022-08-02T04:25:32;18.90;99.90
24152;DHT22;12311;50.866;4.332;2022-08-02T04:27:59;19.00;99.90
24152;DHT22;12311;50.866;4.332;2022-08-02T04:30:27;18.90;99.90
24152;DHT22;12311;50.866;4.332;2022-08-02T04:32:53;18.90;99.90
24152;DHT22;12311;50.866;4.332;2022-08-02T04:35:19;19.00;99.90
24152;DHT22;12311;50.866;4.332;2022-08-02T04:37:45;18.90;99.90
24152;DHT22;12311;50.866;4.332;2022-08-02T04:40:12;18.90;99.90
24152;DHT22;12311;50.866;4.332;2022-08-02T04:42:38;18.90;99.90
24152;DHT22;12311;50.866;4.332;2022-08-02T04:45:08;18.90;99.90
24152;DHT22;12311;50.866;4.332;2022-08-02T04:47:35;18.90;99.90
24152;DHT22;12311;50.866;4.332;2022-08-02T04:50:01;18.80;99.90
24152;DHT22;12311;50.866;4.332;2022-08-02T04:52:27;18.90;99.90
24152;DHT22;12311;50.866;4.332;2022-08-02T04:54:52;18.80;99.90
24152;DHT22;12311;50.866;4.332;2022-08-02T04:57:21;18.70;99.90
24152;DHT22;12311;50.866;4.332;2022-08-02T05:00:07;18.60;99.90
24152;DHT22;12311;50.866;4.332;2022-08-02T05:02:34;18.70;99.90
24152;DHT22;12311;50.866;4.332;2022-08-02T05:05:00;18.70;99.90
24152;DHT22;12311;50.866;4.332;2022-08-02T05:07:26;18.70;99.90
24152;DHT22;12311;50.866;4.332;2022-08-02T05:09:51;18.70;99.90
24152;DHT22;12311;50.866;4.332;2022-08-02T05:12:17;18.70;99.90
24152;DHT22;12311;50.866;4.332;2022-08-02T05:14:46;18.80;99.90
24152;DHT22;12311;50.866;4.332;2022-08-02T05:17:12;18.70;99.90
24152;DHT22;12311;50.866;4.332;2022-08-02T05:19:38;18.60;99.90
24152;DHT22;12311;50.866;4.332;2022-08-02T05:22:04;18.70;99.90
24152;DHT22;12311;50.866;4.332;2022-08-02T05:24:29;18.60;99.90
24152;DHT22;12311;50.866;4.332;2022-08-02T05:26:55;18.60;99.90
24152;DHT22;12311;50.866;4.332;2022-08-02T05:29:21;18.60;99.90
24152;DHT22;12311;50.866;4.332;2022-08-02T05:31:47;18.70;99.90
24152;DHT22;12311;50.866;4.332;2022-08-02T05:34:13;18.60;99.90
24152;DHT22;12311;50.866;4.332;2022-08-02T05:36:39;18.50;99.90
24152;DHT22;12311;50.866;4.332;2022-08-02T05:39:04;18.50;99.90
24152;DHT22;12311;50.866;4.332;2022-08-02T05:41:30;18.40;99.90
24152;DHT22;12311;50.866;4.332;2022-08-02T05:43:55;18.40;99.90
24152;DHT22;12311;50.866;4.332;2022-08-02T05:46:21;18.50;99.90
24152;DHT22;12311;50.866;4.332;2022-08-02T05:48:47;18.40;99.90
24152;DHT22;12311;50.866;4.332;2022-08-02T05:51:24;18.50;99.90
24152;DHT22;12311;50.866;4.332;2022-08-02T05:53:55;18.50;99.90
24152;DHT22;12311;50.866;4.332;2022-08-02T05:56:42;18.50;99.90
24152;DHT22;12311;50.866;4.332;2022-08-02T06:01:48;18.60;99.90
24152;DHT22;12311;50.866;4.332;2022-08-02T06:04:24;18.50;99.90
24152;DHT22;12311;50.866;4.332;2022-08-02T06:06:55;18.50;99.90
24152;DHT22;12311;50.866;4.332;2022-08-02T06:09:22;18.50;99.90
24152;DHT22;12311;50.866;4.332;2022-08-02T06:11:50;18.60;99.90
24152;DHT22;12311;50.866;4.332;2022-08-02T06:14:17;18.70;99.90
24152;DHT22;12311;50.866;4.332;2022-08-02T06:16:44;18.70;99.90
24152;DHT22;12311;50.866;4.332;2022-08-02T06:19:13;18.70;99.90
24152;DHT22;12311;50.866;4.332;2022-08-02T06:21:42;18.90;99.90
24152;DHT22;12311;50.866;4.332;2022-08-02T06:24:09;18.90;99.90
24152;DHT22;12311;50.866;4.332;2022-08-02T06:26:36;19.00;99.90
24152;DHT22;12311;50.866;4.332;2022-08-02T06:29:02;19.10;99.90
24152;DHT22;12311;50.866;4.332;2022-08-02T06:31:29;19.10;99.90
24152;DHT22;12311;50.866;4.332;2022-08-02T06:33:55;19.30;99.90
24152;DHT22;12311;50.866;4.332;2022-08-02T06:39:01;19.40;99.90
24152;DHT22;12311;50.866;4.332;2022-08-02T06:41:30;19.40;99.90
24152;DHT22;12311;50.866;4.332;2022-08-02T06:44:03;19.40;99.90
24152;DHT22;12311;50.866;4.332;2022-08-02T06:46:29;19.50;99.90
24152;DHT22;12311;50.866;4.332;2022-08-02T06:48:55;19.60;99.90
24152;DHT22;12311;50.866;4.332;2022-08-02T06:51:22;19.70;99.90
24152;DHT22;12311;50.866;4.332;2022-08-02T06:53:47;19.60;99.90
24152;DHT22;12311;50.866;4.332;2022-08-02T06:56:13;19.60;99.90
24152;DHT22;12311;50.866;4.332;2022-08-02T06:58:39;19.70;99.90
24152;DHT22;12311;50.866;4.332;2022-08-02T07:01:05;19.70;99.90
24152;DHT22;12311;50.866;4.332;2022-08-02T07:03:35;19.70;99.90
24152;DHT22;12311;50.866;4.332;2022-08-02T07:06:01;19.70;99.90
24152;DHT22;12311;50.866;4.332;2022-08-02T07:08:27;19.80;99.90
24152;DHT22;12311;50.866;4.332;2022-08-02T07:11:07;20.00;99.90
24152;DHT22;12311;50.866;4.332;2022-08-02T07:13:33;20.10;99.90
24152;DHT22;12311;50.866;4.332;2022-08-02T07:15:59;20.00;99.90
24152;DHT22;12311;50.866;4.332;2022-08-02T07:18:25;20.00;99.90
24152;DHT22;12311;50.866;4.332;2022-08-02T07:20:51;19.90;99.90
24152;DHT22;12311;50.866;4.332;2022-08-02T07:23:17;20.00;99.90
24152;DHT22;12311;50.866;4.332;2022-08-02T07:25:43;20.10;99.90
24152;DHT22;12311;50.866;4.332;2022-08-02T07:28:10;20.10;99.90
24152;DHT22;12311;50.866;4.332;2022-08-02T07:30:36;20.10;99.90
24152;DHT22;12311;50.866;4.332;2022-08-02T07:33:02;20.00;99.90
24152;DHT22;12311;50.866;4.332;2022-08-02T07:35:28;20.10;99.90
24152;DHT22;12311;50.866;4.332;2022-08-02T07:37:54;20.30;99.90
24152;DHT22;12311;50.866;4.332;2022-08-02T07:40:20;20.40;99.90
24152;DHT22;12311;50.866;4.332;2022-08-02T07:42:51;20.40;99.90
24152;DHT22;12311;50.866;4.332;2022-08-02T07:45:18;20.40;99.90
24152;DHT22;12311;50.866;4.332;2022-08-02T07:47:44;20.60;99.90
24152;DHT22;12311;50.866;4.332;2022-08-02T07:50:10;20.70;99.90
24152;DHT22;12311;50.866;4.332;2022-08-02T07:52:37;20.60;99.90
24152;DHT22;12311;50.866;4.332;2022-08-02T07:55:05;20.80;99.90
24152;DHT22;12311;50.866;4.332;2022-08-02T07:57:30;21.00;99.90
24152;DHT22;12311;50.866;4.332;2022-08-02T07:59:57;21.00;99.90
24152;DHT22;12311;50.866;4.332;2022-08-02T08:02:23;21.10;99.90
24152;DHT22;12311;50.866;4.332;2022-08-02T08:04:49;21.30;99.90
24152;DHT22;12311;50.866;4.332;2022-08-02T08:07:15;21.40;99.90
24152;DHT22;12311;50.866;4.332;2022-08-02T08:09:41;21.60;99.90
24152;DHT22;12311;50.866;4.332;2022-08-02T08:12:08;21.80;99.90
24152;DHT22;12311;50.866;4.332;2022-08-02T08:14:35;22.00;99.90
24152;DHT22;12311;50.866;4.332;2022-08-02T08:17:01;22.00;99.90
24152;DHT22;12311;50.866;4.332;2022-08-02T08:19:26;22.00;99.90
24152;DHT22;12311;50.866;4.332;2022-08-02T08:21:52;21.90;99.90
24152;DHT22;12311;50.866;4.332;2022-08-02T08:24:18;21.90;99.90
24152;DHT22;12311;50.866;4.332;2022-08-02T08:26:43;21.90;99.90
24152;DHT22;12311;50.866;4.332;2022-08-02T08:29:09;22.00;99.90
24152;DHT22;12311;50.866;4.332;2022-08-02T08:31:34;22.00;99.90
24152;DHT22;12311;50.866;4.332;2022-08-02T08:34:01;22.10;99.90
24152;DHT22;12311;50.866;4.332;2022-08-02T08:36:26;22.30;99.90
24152;DHT22;12311;50.866;4.332;2022-08-02T08:38:53;22.40;99.90
24152;DHT22;12311;50.866;4.332;2022-08-02T08:41:19;22.50;99.90
24152;DHT22;12311;50.866;4.332;2022-08-02T08:43:45;22.40;99.90
24152;DHT22;12311;50.866;4.332;2022-08-02T08:46:25;22.50;99.90
24152;DHT22;12311;50.866;4.332;2022-08-02T08:48:54;22.50;99.90
24152;DHT22;12311;50.866;4.332;2022-08-02T08:51:24;22.70;99.90
24152;DHT22;12311;50.866;4.332;2022-08-02T08:53:53;22.80;99.90
24152;DHT22;12311;50.866;4.332;2022-08-02T08:56:21;22.90;99.90
24152;DHT22;12311;50.866;4.332;2022-08-02T08:58:47;23.00;99.90
24152;DHT22;12311;50.866;4.332;2022-08-02T09:01:14;23.10;99.90
24152;DHT22;12311;50.866;4.332;2022-08-02T09:03:42;23.10;99.90
24152;DHT22;12311;50.866;4.332;2022-08-02T09:06:08;23.30;99.90
24152;DHT22;12311;50.866;4.332;2022-08-02T09:08:33;23.50;99.90
24152;DHT22;12311;50.866;4.332;2022-08-02T09:10:59;23.50;99.90
24152;DHT22;12311;50.866;4.332;2022-08-02T09:13:27;23.40;99.90
24152;DHT22;12311;50.866;4.332;2022-08-02T09:15:59;23.50;99.90
24152;DHT22;12311;50.866;4.332;2022-08-02T09:18:39;23.70;99.90
24152;DHT22;12311;50.866;4.332;2022-08-02T09:21:06;23.90;99.90
24152;DHT22;12311;50.866;4.332;2022-08-02T09:23:41;24.20;99.90
24152;DHT22;12311;50.866;4.332;2022-08-02T09:26:12;24.50;99.90
24152;DHT22;12311;50.866;4.332;2022-08-02T09:28:40;24.90;99.90
24152;DHT22;12311;50.866;4.332;2022-08-02T09:33:38;24.70;99.90
24152;DHT22;12311;50.866;4.332;2022-08-02T09:36:15;24.70;99.90
24152;DHT22;12311;50.866;4.332;2022-08-02T09:38:53;24.70;99.90
24152;DHT22;12311;50.866;4.332;2022-08-02T09:41:23;24.60;99.90
24152;DHT22;12311;50.866;4.332;2022-08-02T09:43:50;24.70;99.90
24152;DHT22;12311;50.866;4.332;2022-08-02T09:46:23;25.00;99.90
24152;DHT22;12311;50.866;4.332;2022-08-02T09:48:58;25.00;99.90
24152;DHT22;12311;50.866;4.332;2022-08-02T09:51:32;25.10;99.90
24152;DHT22;12311;50.866;4.332;2022-08-02T09:54:07;25.20;99.90
24152;DHT22;12311;50.866;4.332;2022-08-02T09:56:45;25.50;99.90
24152;DHT22;12311;50.866;4.332;2022-08-02T09:59:12;25.60;99.90
24152;DHT22;12311;50.866;4.332;2022-08-02T10:01:39;25.50;99.90
24152;DHT22;12311;50.866;4.332;2022-08-02T10:04:07;25.80;99.90
24152;DHT22;12311;50.866;4.332;2022-08-02T10:06:36;25.90;99.90
24152;DHT22;12311;50.866;4.332;2022-08-02T10:09:03;25.80;99.90
24152;DHT22;12311;50.866;4.332;2022-08-02T10:11:28;26.10;99.90
24152;DHT22;12311;50.866;4.332;2022-08-02T10:13:55;26.70;99.90
24152;DHT22;12311;50.866;4.332;2022-08-02T10:16:22;27.10;99.90
24152;DHT22;12311;50.866;4.332;2022-08-02T10:18:50;27.10;99.90
24152;DHT22;12311;50.866;4.332;2022-08-02T10:21:27;26.80;99.90
24152;DHT22;12311;50.866;4.332;2022-08-02T10:24:03;26.60;99.90
24152;DHT22;12311;50.866;4.332;2022-08-02T10:26:30;26.30;99.90
24152;DHT22;12311;50.866;4.332;2022-08-02T10:28:55;25.70;99.90
24152;DHT22;12311;50.866;4.332;2022-08-02T10:31:26;25.60;99.90
24152;DHT22;12311;50.866;4.332;2022-08-02T10:33:53;25.60;99.90
24152;DHT22;12311;50.866;4.332;2022-08-02T10:36:21;25.80;99.90
24152;DHT22;12311;50.866;4.332;2022-08-02T10:38:48;26.00;99.90
24152;DHT22;12311;50.866;4.332;2022-08-02T10:41:14;25.70;99.90
24152;DHT22;12311;50.866;4.332;2022-08-02T10:44:00;25.80;99.90
24152;DHT22;12311;50.866;4.332;2022-08-02T10:46:36;26.20;99.90
24152;DHT22;12311;50.866;4.332;2022-08-02T10:56:54;26.80;99.90
24152;DHT22;12311;50.866;4.332;2022-08-02T10:59:33;26.80;99.90
24152;DHT22;12311;50.866;4.332;2022-08-02T11:02:03;26.80;99.90
24152;DHT22;12311;50.866;4.332;2022-08-02T11:07:16;27.00;99.90
24152;DHT22;12311;50.866;4.332;2022-08-02T11:09:49;27.20;99.90
24152;DHT22;12311;50.866;4.332;2022-08-02T11:12:18;27.70;99.90
24152;DHT22;12311;50.866;4.332;2022-08-02T11:14:59;27.90;99.90
24152;DHT22;12311;50.866;4.332;2022-08-02T11:17:24;28.80;99.90
24152;DHT22;12311;50.866;4.332;2022-08-02T11:20:22;29.30;99.90
24152;DHT22;12311;50.866;4.332;2022-08-02T11:22:50;29.70;99.90
24152;DHT22;12311;50.866;4.332;2022-08-02T11:27:49;30.30;99.90
24152;DHT22;12311;50.866;4.332;2022-08-02T11:30:16;30.60;98.60
24152;DHT22;12311;50.866;4.332;2022-08-02T11:32:42;30.50;97.30
24152;DHT22;12311;50.866;4.332;2022-08-02T11:35:08;30.40;97.70
24152;DHT22;12311;50.866;4.332;2022-08-02T11:37:39;30.60;97.40
24152;DHT22;12311;50.866;4.332;2022-08-02T11:40:08;30.30;97.10
24152;DHT22;12311;50.866;4.332;2022-08-02T11:42:39;29.50;98.20
24152;DHT22;12311;50.866;4.332;2022-08-02T11:45:06;29.00;99.10
24152;DHT22;12311;50.866;4.332;2022-08-02T11:47:33;29.10;98.60
24152;DHT22;12311;50.866;4.332;2022-08-02T11:50:08;29.00;98.50
24152;DHT22;12311;50.866;4.332;2022-08-02T11:52:35;29.50;97.90
24152;DHT22;12311;50.866;4.332;2022-08-02T11:55:01;29.80;98.00
24152;DHT22;12311;50.866;4.332;2022-08-02T11:57:27;29.60;97.90
24152;DHT22;12311;50.866;4.332;2022-08-02T11:59:54;29.70;98.10
24152;DHT22;12311;50.866;4.332;2022-08-02T12:02:25;29.50;97.40
24152;DHT22;12311;50.866;4.332;2022-08-02T12:04:57;29.60;98.30
24152;DHT22;12311;50.866;4.332;2022-08-02T12:07:31;29.80;97.50
24152;DHT22;12311;50.866;4.332;2022-08-02T12:10:04;30.30;97.00
24152;DHT22;12311;50.866;4.332;2022-08-02T12:12:31;30.20;96.60
24152;DHT22;12311;50.866;4.332;2022-08-02T12:14:56;30.10;97.00
24152;DHT22;12311;50.866;4.332;2022-08-02T12:17:26;29.90;96.40
24152;DHT22;12311;50.866;4.332;2022-08-02T12:20:11;29.50;96.30
24152;DHT22;12311;50.866;4.332;2022-08-02T12:22:37;29.50;96.80
24152;DHT22;12311;50.866;4.332;2022-08-02T12:25:19;29.90;96.80
24152;DHT22;12311;50.866;4.332;2022-08-02T12:27:46;30.10;96.40
24152;DHT22;12311;50.866;4.332;2022-08-02T12:30:14;29.70;96.20
24152;DHT22;12311;50.866;4.332;2022-08-02T12:32:41;29.40;96.50
24152;DHT22;12311;50.866;4.332;2022-08-02T12:35:13;29.80;97.00
24152;DHT22;12311;50.866;4.332;2022-08-02T12:37:42;30.00;97.40
24152;DHT22;12311;50.866;4.332;2022-08-02T12:40:18;30.30;96.50
24152;DHT22;12311;50.866;4.332;2022-08-02T12:42:46;30.40;96.10
24152;DHT22;12311;50.866;4.332;2022-08-02T12:45:12;30.80;96.20
24152;DHT22;12311;50.866;4.332;2022-08-02T12:47:46;30.50;96.20
24152;DHT22;12311;50.866;4.332;2022-08-02T12:50:22;30.20;96.30
24152;DHT22;12311;50.866;4.332;2022-08-02T12:52:49;29.50;97.50
24152;DHT22;12311;50.866;4.332;2022-08-02T12:55:20;29.40;98.00
24152;DHT22;12311;50.866;4.332;2022-08-02T12:58:00;30.00;97.80
24152;DHT22;12311;50.866;4.332;2022-08-02T13:00:29;30.70;96.40
24152;DHT22;12311;50.866;4.332;2022-08-02T13:02:56;30.10;97.20
24152;DHT22;12311;50.866;4.332;2022-08-02T13:05:22;30.40;96.90
24152;DHT22;12311;50.866;4.332;2022-08-02T13:07:48;30.90;96.00
24152;DHT22;12311;50.866;4.332;2022-08-02T13:10:14;30.90;95.90
24152;DHT22;12311;50.866;4.332;2022-08-02T13:12:40;30.60;96.10
24152;DHT22;12311;50.866;4.332;2022-08-02T13:15:06;31.20;95.90
24152;DHT22;12311;50.866;4.332;2022-08-02T13:17:32;31.10;95.50
24152;DHT22;12311;50.866;4.332;2022-08-02T13:19:58;31.90;94.70
24152;DHT22;12311;50.866;4.332;2022-08-02T13:22:24;31.70;94.20
24152;DHT22;12311;50.866;4.332;2022-08-02T13:24:50;31.60;94.40
24152;DHT22;12311;50.866;4.332;2022-08-02T13:27:16;31.10;94.70
24152;DHT22;12311;50.866;4.332;2022-08-02T13:29:42;31.10;94.60
24152;DHT22;12311;50.866;4.332;2022-08-02T13:32:08;30.90;95.30
24152;DHT22;12311;50.866;4.332;2022-08-02T13:34:35;31.40;94.90
24152;DHT22;12311;50.866;4.332;2022-08-02T13:37:02;32.50;93.00
24152;DHT22;12311;50.866;4.332;2022-08-02T13:39:28;31.90;93.40
24152;DHT22;12311;50.866;4.332;2022-08-02T13:41:54;31.50;93.80
24152;DHT22;12311;50.866;4.332;2022-08-02T13:44:20;31.70;93.90
24152;DHT22;12311;50.866;4.332;2022-08-02T13:46:46;31.10;94.50
24152;DHT22;12311;50.866;4.332;2022-08-02T13:49:14;31.10;94.40
24152;DHT22;12311;50.866;4.332;2022-08-02T13:51:40;31.20;94.60
24152;DHT22;12311;50.866;4.332;2022-08-02T13:54:06;31.20;94.50
24152;DHT22;12311;50.866;4.332;2022-08-02T13:56:31;30.70;95.20
24152;DHT22;12311;50.866;4.332;2022-08-02T13:58:57;31.10;95.20
24152;DHT22;12311;50.866;4.332;2022-08-02T14:01:25;31.40;94.70
24152;DHT22;12311;50.866;4.332;2022-08-02T14:03:50;32.70;93.50
24152;DHT22;12311;50.866;4.332;2022-08-02T14:06:19;34.00;91.80
24152;DHT22;12311;50.866;4.332;2022-08-02T14:08:45;34.80;90.10
24152;DHT22;12311;50.866;4.332;2022-08-02T14:11:10;34.10;90.70
24152;DHT22;12311;50.866;4.332;2022-08-02T14:13:36;34.90;88.70
24152;DHT22;12311;50.866;4.332;2022-08-02T14:16:02;35.20;86.90
24152;DHT22;12311;50.866;4.332;2022-08-02T14:18:27;35.70;85.20
24152;DHT22;12311;50.866;4.332;2022-08-02T14:20:53;35.80;82.60
24152;DHT22;12311;50.866;4.332;2022-08-02T14:23:18;35.30;83.00
24152;DHT22;12311;50.866;4.332;2022-08-02T14:25:44;35.00;83.20
24152;DHT22;12311;50.866;4.332;2022-08-02T14:28:10;34.90;83.50
24152;DHT22;12311;50.866;4.332;2022-08-02T14:30:35;35.40;83.20
24152;DHT22;12311;50.866;4.332;2022-08-02T14:33:01;34.90;82.50
24152;DHT22;12311;50.866;4.332;2022-08-02T14:35:28;34.70;82.90
24152;DHT22;12311;50.866;4.332;2022-08-02T14:37:54;34.00;85.40
24152;DHT22;12311;50.866;4.332;2022-08-02T14:40:20;34.50;85.30
24152;DHT22;12311;50.866;4.332;2022-08-02T14:42:46;33.50;86.10
24152;DHT22;12311;50.866;4.332;2022-08-02T14:45:11;33.20;87.40
24152;DHT22;12311;50.866;4.332;2022-08-02T14:47:37;33.20;87.10
24152;DHT22;12311;50.866;4.332;2022-08-02T14:50:03;33.80;86.50
24152;DHT22;12311;50.866;4.332;2022-08-02T14:52:29;33.70;85.80
24152;DHT22;12311;50.866;4.332;2022-08-02T14:54:54;33.10;86.70
24152;DHT22;12311;50.866;4.332;2022-08-02T14:57:20;32.90;88.20
24152;DHT22;12311;50.866;4.332;2022-08-02T14:59:46;33.30;88.20
24152;DHT22;12311;50.866;4.332;2022-08-02T15:02:12;32.70;88.70
24152;DHT22;12311;50.866;4.332;2022-08-02T15:04:37;33.80;87.50
24152;DHT22;12311;50.866;4.332;2022-08-02T15:07:03;35.00;84.60
24152;DHT22;12311;50.866;4.332;2022-08-02T15:09:28;34.80;83.60
24152;DHT22;12311;50.866;4.332;2022-08-02T15:11:54;35.30;82.50
24152;DHT22;12311;50.866;4.332;2022-08-02T15:14:20;35.50;81.00
24152;DHT22;12311;50.866;4.332;2022-08-02T15:16:47;35.40;80.10
24152;DHT22;12311;50.866;4.332;2022-08-02T15:19:12;35.30;80.40
24152;DHT22;12311;50.866;4.332;2022-08-02T15:21:38;35.80;79.70
24152;DHT22;12311;50.866;4.332;2022-08-02T15:24:04;35.20;79.10
24152;DHT22;12311;50.866;4.332;2022-08-02T15:26:29;34.90;80.60
24152;DHT22;12311;50.866;4.332;2022-08-02T15:28:55;34.40;81.30
24152;DHT22;12311;50.866;4.332;2022-08-02T15:31:22;34.40;82.50
24152;DHT22;12311;50.866;4.332;2022-08-02T15:33:48;33.50;83.90
24152;DHT22;12311;50.866;4.332;2022-08-02T15:36:14;33.60;84.00
24152;DHT22;12311;50.866;4.332;2022-08-02T15:38:41;33.10;84.70
24152;DHT22;12311;50.866;4.332;2022-08-02T15:41:06;33.10;85.80
24152;DHT22;12311;50.866;4.332;2022-08-02T15:43:34;32.90;85.90
24152;DHT22;12311;50.866;4.332;2022-08-02T15:46:01;32.50;86.80
24152;DHT22;12311;50.866;4.332;2022-08-02T15:48:26;32.10;88.60
24152;DHT22;12311;50.866;4.332;2022-08-02T15:50:52;32.10;89.20
24152;DHT22;12311;50.866;4.332;2022-08-02T15:53:18;31.60;90.00
24152;DHT22;12311;50.866;4.332;2022-08-02T15:55:43;31.40;90.60
24152;DHT22;12311;50.866;4.332;2022-08-02T15:58:09;31.30;91.10
24152;DHT22;12311;50.866;4.332;2022-08-02T16:00:35;31.30;91.40
24152;DHT22;12311;50.866;4.332;2022-08-02T16:03:00;31.00;91.50
24152;DHT22;12311;50.866;4.332;2022-08-02T16:05:26;30.70;92.10
24152;DHT22;12311;50.866;4.332;2022-08-02T16:07:52;30.50;92.50